createdAt,value
2022-11-29T00:00:50.128Z,6.45
2022-11-29T00:01:52.426Z,6.38
2022-11-29T00:02:54.884Z,6.43
2022-11-29T00:03:57.647Z,6.40
2022-11-29T00:04:59.812Z,6.38
2022-11-29T00:06:09.285Z,6.43
2022-11-29T00:07:11.416Z,6.45
2022-11-29T00:08:13.639Z,6.42
2022-11-29T00:09:15.753Z,6.39
2022-11-29T00:10:18.179Z,6.37
2022-11-29T00:11:41.909Z,6.37
2022-11-29T00:12:47.364Z,6.33
2022-11-29T00:13:49.457Z,6.34
2022-11-29T00:14:51.594Z,6.35
2022-11-29T00:15:53.679Z,6.38
2022-11-29T00:17:03.175Z,6.42
2022-11-29T00:18:06.769Z,6.46
2022-11-29T00:19:10.887Z,6.42
2022-11-29T00:20:13.428Z,6.40
2022-11-29T00:21:15.574Z,6.39
2022-11-29T00:22:17.739Z,6.38
2022-11-29T00:23:19.871Z,6.33
2022-11-29T00:24:22.223Z,6.38
2022-11-29T00:25:24.433Z,6.38
2022-11-29T00:26:26.784Z,6.30
2022-11-29T00:27:29.369Z,6.26
2022-11-29T00:28:31.652Z,6.24
2022-11-29T00:29:33.761Z,6.24
2022-11-29T00:30:35.951Z,6.32
2022-11-29T00:31:38.338Z,6.27
2022-11-29T00:32:40.526Z,6.28
2022-11-29T00:33:42.760Z,6.32
2022-11-29T00:34:45.170Z,6.39
2022-11-29T00:35:47.444Z,6.37
2022-11-29T00:36:49.591Z,6.33
2022-11-29T00:37:51.761Z,6.33
2022-11-29T00:38:54.044Z,6.34
2022-11-29T00:39:56.191Z,6.32
2022-11-29T00:40:58.323Z,6.32
2022-11-29T00:42:00.531Z,6.29
2022-11-29T00:43:02.686Z,6.37
2022-11-29T00:44:04.856Z,6.33
2022-11-29T00:45:07.521Z,6.31
2022-11-29T00:46:11.855Z,6.27
2022-11-29T00:47:14.049Z,6.28
2022-11-29T00:48:16.166Z,6.31
2022-11-29T00:49:18.463Z,6.29
2022-11-29T00:50:20.663Z,6.25
2022-11-29T00:51:22.890Z,6.14
2022-11-29T00:52:25.003Z,6.18
2022-11-29T00:53:27.488Z,6.16
2022-11-29T00:54:29.676Z,6.18
2022-11-29T00:55:31.818Z,6.18
2022-11-29T00:56:33.929Z,6.19
2022-11-29T00:57:36.087Z,6.22
2022-11-29T00:58:38.402Z,6.25
2022-11-29T00:59:40.541Z,6.31
2022-11-29T01:00:42.789Z,6.23
2022-11-29T01:01:44.964Z,6.26
2022-11-29T01:02:47.233Z,6.33
2022-11-29T01:03:49.523Z,6.25
2022-11-29T01:04:51.659Z,6.29
2022-11-29T01:06:18.446Z,6.32
2022-11-29T01:07:20.663Z,6.35
2022-11-29T01:08:22.868Z,6.26
2022-11-29T01:09:25.018Z,6.25
2022-11-29T01:10:27.568Z,6.14
2022-11-29T01:11:29.782Z,6.21
2022-11-29T01:12:36.647Z,6.27
2022-11-29T01:13:39.442Z,6.29
2022-11-29T01:14:41.942Z,6.35
2022-11-29T01:15:44.217Z,6.34
2022-11-29T01:16:46.444Z,6.33
2022-11-29T01:17:49.420Z,6.34
2022-11-29T01:18:51.667Z,6.38
2022-11-29T01:19:53.976Z,6.35
2022-11-29T01:21:06.615Z,6.41
2022-11-29T01:22:08.814Z,6.41
2022-11-29T01:23:10.939Z,6.38
2022-11-29T01:24:13.059Z,6.38
2022-11-29T01:25:15.494Z,6.31
2022-11-29T01:26:21.298Z,6.28
2022-11-29T01:27:23.454Z,6.31
2022-11-29T01:28:26.142Z,6.35
2022-11-29T01:29:28.250Z,6.40
2022-11-29T01:30:30.452Z,6.40
2022-11-29T01:31:37.480Z,6.43
2022-11-29T01:32:39.649Z,6.39
2022-11-29T01:33:42.454Z,6.45
2022-11-29T01:34:44.855Z,6.50
2022-11-29T01:35:54.595Z,6.52
2022-11-29T01:36:56.750Z,6.49
2022-11-29T01:37:58.872Z,6.50
2022-11-29T01:39:02.823Z,6.52
2022-11-29T01:40:05.710Z,6.46
2022-11-29T01:41:12.860Z,6.45
2022-11-29T01:42:15.208Z,6.47
2022-11-29T01:43:18.469Z,6.49
2022-11-29T01:44:20.772Z,6.46
2022-11-29T01:45:26.342Z,6.46
2022-11-29T01:46:30.680Z,6.39
2022-11-29T01:47:33.856Z,6.45
2022-11-29T01:48:36.001Z,6.40
2022-11-29T01:49:42.147Z,6.42
2022-11-29T01:50:44.373Z,6.45
2022-11-29T01:51:51.636Z,6.49
2022-11-29T01:52:53.800Z,6.48
2022-11-29T01:53:57.069Z,6.49
2022-11-29T01:55:03.873Z,6.53
2022-11-29T01:56:07.502Z,6.41
2022-11-29T01:57:10.336Z,6.44
2022-11-29T01:58:12.803Z,6.45
2022-11-29T01:59:19.222Z,6.42
2022-11-29T02:00:21.766Z,6.39
2022-11-29T02:01:24.239Z,6.42
2022-11-29T02:02:35.406Z,6.44
2022-11-29T02:03:37.648Z,6.43
2022-11-29T02:04:43.427Z,6.56
2022-11-29T02:05:50.235Z,6.53
2022-11-29T02:06:52.365Z,6.43
2022-11-29T02:07:57.829Z,6.48
2022-11-29T02:09:00.247Z,6.47
2022-11-29T02:10:02.966Z,6.50
2022-11-29T02:11:27.591Z,6.46
2022-11-29T02:12:44.621Z,6.43
2022-11-29T02:14:05.303Z,6.49
2022-11-29T02:15:13.547Z,6.47
2022-11-29T02:16:31.998Z,6.50
2022-11-29T02:17:43.092Z,6.50
2022-11-29T02:19:03.827Z,6.47
2022-11-29T02:20:14.850Z,6.44
2022-11-29T02:21:48.107Z,6.48
2022-11-29T02:22:53.200Z,6.47
2022-11-29T02:24:30.061Z,6.40
2022-11-29T02:25:35.083Z,6.29
2022-11-29T02:26:55.352Z,6.31
2022-11-29T02:28:35.802Z,6.32
2022-11-29T02:29:46.902Z,6.35
2022-11-29T02:31:20.281Z,6.35
2022-11-29T02:32:34.481Z,6.24
2022-11-29T02:33:55.291Z,6.28
2022-11-29T02:35:20.441Z,6.30
2022-11-29T02:37:18.150Z,6.35
2022-11-29T02:38:45.169Z,6.34
2022-11-29T02:40:09.692Z,6.41
2022-11-29T02:41:36.908Z,6.40
2022-11-29T02:43:05.839Z,6.47
2022-11-29T02:44:22.983Z,6.41
2022-11-29T02:45:58.499Z,6.45
2022-11-29T02:47:28.786Z,6.47
2022-11-29T02:49:09.776Z,6.48
2022-11-29T02:50:11.941Z,6.43
2022-11-29T02:51:35.798Z,6.38
2022-11-29T02:53:02.928Z,6.46
2022-11-29T02:54:20.457Z,6.40
2022-11-29T02:55:34.618Z,6.45
2022-11-29T02:56:53.887Z,6.44
2022-11-29T02:58:14.108Z,6.44
2022-11-29T02:59:34.136Z,6.31
2022-11-29T03:00:46.848Z,6.29
2022-11-29T03:02:03.165Z,6.36
2022-11-29T03:03:05.309Z,6.38
2022-11-29T03:04:34.948Z,6.49
2022-11-29T03:05:51.281Z,6.52
2022-11-29T03:07:34.554Z,6.44
2022-11-29T03:08:51.560Z,6.44
2022-11-29T03:10:05.160Z,6.49
2022-11-29T03:11:20.652Z,6.49
2022-11-29T03:12:45.823Z,6.53
2022-11-29T03:13:51.405Z,6.46
2022-11-29T03:14:59.397Z,6.48
2022-11-29T03:16:13.562Z,6.45
2022-11-29T03:17:34.260Z,6.48
2022-11-29T03:18:56.269Z,6.42
2022-11-29T03:20:35.829Z,6.40
2022-11-29T03:21:49.509Z,6.33
2022-11-29T03:23:09.707Z,6.35
2022-11-29T03:24:37.252Z,6.39
2022-11-29T03:25:45.921Z,6.32
2022-11-29T03:26:56.102Z,6.30
2022-11-29T03:28:11.146Z,6.34
2022-11-29T03:29:55.049Z,6.42
2022-11-29T03:31:29.433Z,6.33
2022-11-29T03:33:04.012Z,6.42
2022-11-29T03:34:11.530Z,6.39
2022-11-29T03:35:30.797Z,6.44
2022-11-29T03:36:45.387Z,6.44
2022-11-29T03:38:08.835Z,6.39
2022-11-29T03:39:19.137Z,6.42
2022-11-29T03:40:34.854Z,6.39
2022-11-29T03:42:02.241Z,6.43
2022-11-29T03:43:09.460Z,6.38
2022-11-29T03:44:40.382Z,6.47
2022-11-29T03:46:10.941Z,6.50
2022-11-29T03:47:17.334Z,6.53
2022-11-29T03:48:31.691Z,6.51
2022-11-29T03:49:52.000Z,6.44
2022-11-29T03:50:57.634Z,6.46
2022-11-29T03:52:19.545Z,6.50
2022-11-29T03:53:46.166Z,6.47
2022-11-29T03:55:03.470Z,6.49
2022-11-29T03:56:28.861Z,6.53
2022-11-29T03:57:45.212Z,6.54
2022-11-29T03:59:05.967Z,6.44
2022-11-29T04:00:10.747Z,6.42
2022-11-29T04:01:21.776Z,6.38
2022-11-29T04:03:01.011Z,6.42
2022-11-29T04:04:33.934Z,6.40
2022-11-29T04:06:02.656Z,6.38
2022-11-29T04:07:14.851Z,6.48
2022-11-29T04:08:54.239Z,6.47
2022-11-29T04:10:18.057Z,6.46
2022-11-29T04:11:54.641Z,6.46
2022-11-29T04:13:02.942Z,6.44
2022-11-29T04:14:34.793Z,6.48
2022-11-29T04:15:55.348Z,6.37
2022-11-29T04:17:24.822Z,6.42
2022-11-29T04:18:43.805Z,6.41
2022-11-29T04:20:07.705Z,6.51
2022-11-29T04:21:32.714Z,6.51
2022-11-29T04:22:43.669Z,6.51
2022-11-29T04:23:51.494Z,6.51
2022-11-29T04:25:16.318Z,6.59
2022-11-29T04:26:24.215Z,6.50
2022-11-29T04:27:48.566Z,6.48
2022-11-29T04:29:11.445Z,6.51
2022-11-29T04:30:18.994Z,6.48
2022-11-29T04:31:33.400Z,6.47
2022-11-29T04:32:41.212Z,6.58
2022-11-29T04:34:20.489Z,6.59
2022-11-29T04:36:07.686Z,6.58
2022-11-29T04:37:18.603Z,6.49
2022-11-29T04:38:26.745Z,6.48
2022-11-29T04:39:59.385Z,6.46
2022-11-29T04:41:01.472Z,6.34
2022-11-29T04:42:15.412Z,6.37
2022-11-29T04:43:29.735Z,6.34
2022-11-29T04:44:46.398Z,6.37
2022-11-29T04:45:57.636Z,6.44
2022-11-29T04:47:11.698Z,6.51
2022-11-29T04:48:25.331Z,6.51
2022-11-29T04:49:57.152Z,6.49
2022-11-29T04:50:59.272Z,6.39
2022-11-29T04:52:29.793Z,6.43
2022-11-29T04:53:53.521Z,6.38
2022-11-29T04:55:08.119Z,6.52
2022-11-29T04:56:31.221Z,6.52
2022-11-29T04:57:44.931Z,6.46
2022-11-29T04:59:05.834Z,6.69
2022-11-29T05:00:15.547Z,6.63
2022-11-29T05:01:48.081Z,6.66
2022-11-29T05:02:59.289Z,6.63
2022-11-29T05:04:43.658Z,6.66
2022-11-29T05:05:59.186Z,6.66
2022-11-29T05:07:16.101Z,6.61
2022-11-29T05:08:45.217Z,6.61
2022-11-29T05:10:32.283Z,6.56
2022-11-29T05:11:55.925Z,6.60
2022-11-29T05:13:34.117Z,6.61
2022-11-29T05:14:54.703Z,6.59
2022-11-29T05:16:15.702Z,6.57
2022-11-29T05:17:50.503Z,6.60
2022-11-29T05:19:17.294Z,6.60
2022-11-29T05:20:40.999Z,6.60
2022-11-29T05:21:49.041Z,6.58
2022-11-29T05:23:09.915Z,6.52
2022-11-29T05:24:19.292Z,6.57
2022-11-29T05:25:49.555Z,6.47
2022-11-29T05:27:15.272Z,6.50
2022-11-29T05:28:32.598Z,6.53
2022-11-29T05:29:46.211Z,6.53
2022-11-29T05:31:00.250Z,6.56
2022-11-29T05:32:32.553Z,6.54
2022-11-29T05:33:47.457Z,6.56
2022-11-29T05:34:52.081Z,6.51
2022-11-29T05:36:07.963Z,6.47
2022-11-29T05:37:37.294Z,6.55
2022-11-29T05:38:50.553Z,6.61
2022-11-29T05:40:14.670Z,6.58
2022-11-29T05:41:35.685Z,6.49
2022-11-29T05:42:43.066Z,6.56
2022-11-29T05:43:55.521Z,6.62
2022-11-29T05:45:14.429Z,6.57
2022-11-29T05:46:42.884Z,6.54
2022-11-29T05:47:57.560Z,6.54
2022-11-29T05:49:21.226Z,6.53
2022-11-29T05:50:37.945Z,6.46
2022-11-29T05:52:16.647Z,6.50
2022-11-29T05:53:28.027Z,6.49
2022-11-29T05:54:37.973Z,6.52
2022-11-29T05:55:51.924Z,6.52
2022-11-29T05:57:35.624Z,6.53
2022-11-29T05:58:55.934Z,6.60
2022-11-29T06:00:01.137Z,6.60
2022-11-29T06:01:21.685Z,6.64
2022-11-29T06:02:26.644Z,6.65
2022-11-29T06:03:47.128Z,6.64
2022-11-29T06:05:15.505Z,6.61
2022-11-29T06:06:47.986Z,6.62
2022-11-29T06:08:17.999Z,6.61
2022-11-29T06:09:35.324Z,6.53
2022-11-29T06:10:40.554Z,6.49
2022-11-29T06:11:48.647Z,6.53
2022-11-29T06:13:15.701Z,6.50
2022-11-29T06:15:16.389Z,6.56
2022-11-29T06:16:27.807Z,6.56
2022-11-29T06:17:48.872Z,6.54
2022-11-29T06:18:56.782Z,6.58
2022-11-29T06:19:58.802Z,6.59
2022-11-29T06:21:30.540Z,6.64
2022-11-29T06:22:57.338Z,6.68
2022-11-29T06:24:25.538Z,6.71
2022-11-29T06:25:53.305Z,6.77
2022-11-29T06:27:10.467Z,6.78
2022-11-29T06:28:24.803Z,6.75
2022-11-29T06:29:39.295Z,6.74
2022-11-29T06:31:23.063Z,6.76
2022-11-29T06:32:34.070Z,6.70
2022-11-29T06:33:36.075Z,6.76
2022-11-29T06:34:51.753Z,6.75
2022-11-29T06:36:23.172Z,6.75
2022-11-29T06:37:34.563Z,6.78
2022-11-29T06:38:37.193Z,6.71
2022-11-29T06:39:39.514Z,6.74
2022-11-29T06:40:42.077Z,6.74
2022-11-29T06:41:44.837Z,6.68
2022-11-29T06:42:48.879Z,6.66
2022-11-29T06:43:51.556Z,6.68
2022-11-29T06:44:54.006Z,6.64
2022-11-29T06:46:05.242Z,6.66
2022-11-29T06:47:17.921Z,6.68
2022-11-29T06:48:27.455Z,6.61
2022-11-29T06:49:43.318Z,6.59
2022-11-29T06:51:03.232Z,6.56
2022-11-29T06:52:20.249Z,6.56
2022-11-29T06:53:31.232Z,6.55
2022-11-29T06:55:15.403Z,6.56
2022-11-29T06:56:33.028Z,6.53
2022-11-29T06:57:47.420Z,6.56
2022-11-29T06:59:20.595Z,6.57
2022-11-29T07:00:27.091Z,6.61
2022-11-29T07:01:51.680Z,6.59
2022-11-29T07:03:22.706Z,6.65
2022-11-29T07:04:31.329Z,6.60
2022-11-29T07:05:35.138Z,6.55
2022-11-29T07:06:37.529Z,6.54
2022-11-29T07:07:41.194Z,6.54
2022-11-29T07:08:45.197Z,6.56
2022-11-29T07:09:49.607Z,6.60
2022-11-29T07:10:54.874Z,6.69
2022-11-29T07:11:57.452Z,6.59
2022-11-29T07:12:59.864Z,6.68
2022-11-29T07:14:02.332Z,6.64
2022-11-29T07:15:05.078Z,6.59
2022-11-29T07:16:31.608Z,6.65
2022-11-29T07:17:45.144Z,6.64
2022-11-29T07:18:53.899Z,6.59
2022-11-29T07:20:04.792Z,6.63
2022-11-29T07:21:20.738Z,6.61
2022-11-29T07:22:40.799Z,6.64
2022-11-29T07:24:02.744Z,6.64
2022-11-29T07:25:23.249Z,6.60
2022-11-29T07:26:59.413Z,6.63
2022-11-29T07:28:11.345Z,6.64
2022-11-29T07:29:23.955Z,6.61
2022-11-29T07:30:51.066Z,6.59
2022-11-29T07:32:14.351Z,6.65
2022-11-29T07:33:54.912Z,6.69
2022-11-29T07:35:17.615Z,6.66
2022-11-29T07:36:40.925Z,6.65
2022-11-29T07:38:24.334Z,6.70
2022-11-29T07:39:59.527Z,6.77
2022-11-29T07:41:11.815Z,6.76
2022-11-29T07:42:31.352Z,6.72
2022-11-29T07:44:01.362Z,6.73
2022-11-29T07:45:27.570Z,6.72
2022-11-29T07:46:30.113Z,6.72
2022-11-29T07:47:35.705Z,6.70
2022-11-29T07:48:38.459Z,6.73
2022-11-29T07:49:40.910Z,6.68
2022-11-29T07:50:43.917Z,6.71
2022-11-29T07:51:46.123Z,6.71
2022-11-29T07:52:49.112Z,6.70
2022-11-29T07:53:51.260Z,6.72
2022-11-29T07:54:53.416Z,6.72
2022-11-29T07:55:55.686Z,6.70
2022-11-29T07:56:57.842Z,6.71
2022-11-29T07:58:00.113Z,6.71
2022-11-29T07:59:02.701Z,6.69
2022-11-29T08:00:05.853Z,6.72
2022-11-29T08:01:13.649Z,6.69
2022-11-29T08:02:26.441Z,6.72
2022-11-29T08:03:29.220Z,6.65
2022-11-29T08:04:31.424Z,6.71
2022-11-29T08:05:33.704Z,6.67
2022-11-29T08:06:36.341Z,6.73
2022-11-29T08:07:40.165Z,6.72
2022-11-29T08:08:44.115Z,6.71
2022-11-29T08:09:46.821Z,6.78
2022-11-29T08:10:49.329Z,6.76
2022-11-29T08:11:51.600Z,6.74
2022-11-29T08:12:54.335Z,6.77
2022-11-29T08:13:58.496Z,6.82
2022-11-29T08:15:00.893Z,6.81
2022-11-29T08:16:03.369Z,6.81
2022-11-29T08:17:05.613Z,6.80
2022-11-29T08:18:07.733Z,6.86
2022-11-29T08:19:09.842Z,6.83
2022-11-29T08:20:13.373Z,6.83
2022-11-29T08:21:18.091Z,6.76
2022-11-29T08:22:20.357Z,6.79
2022-11-29T08:23:22.527Z,6.84
2022-11-29T08:24:26.242Z,6.86
2022-11-29T08:25:28.399Z,6.82
2022-11-29T08:26:31.771Z,6.90
2022-11-29T08:27:35.831Z,6.91
2022-11-29T08:28:38.403Z,6.86
2022-11-29T08:29:40.603Z,6.80
2022-11-29T08:30:42.757Z,6.83
2022-11-29T08:31:45.430Z,6.78
2022-11-29T08:32:51.373Z,6.80
2022-11-29T08:33:53.954Z,6.80
2022-11-29T08:34:56.082Z,6.85
2022-11-29T08:36:08.211Z,6.83
2022-11-29T08:37:10.492Z,6.80
2022-11-29T08:38:12.678Z,6.81
2022-11-29T08:39:14.830Z,6.84
2022-11-29T08:40:17.472Z,6.84
2022-11-29T08:41:19.594Z,6.85
2022-11-29T08:42:21.779Z,6.85
2022-11-29T08:43:23.907Z,6.84
2022-11-29T08:44:26.133Z,6.87
2022-11-29T08:45:28.425Z,6.88
2022-11-29T08:46:50.480Z,6.94
2022-11-29T08:47:52.593Z,6.89
2022-11-29T08:48:54.697Z,6.91
2022-11-29T08:50:02.833Z,6.89
2022-11-29T08:51:06.489Z,6.92
2022-11-29T08:52:26.949Z,6.92
2022-11-29T08:53:44.729Z,6.90
2022-11-29T08:54:47.137Z,6.86
2022-11-29T08:55:50.488Z,6.88
2022-11-29T08:58:15.595Z,6.97
2022-11-29T08:59:17.782Z,6.97
2022-11-29T09:00:21.315Z,7.01
2022-11-29T09:01:23.719Z,7.03
2022-11-29T09:02:25.924Z,7.03
2022-11-29T09:03:46.350Z,7.05
2022-11-29T09:04:48.537Z,7.04
2022-11-29T09:05:50.963Z,7.08
2022-11-29T09:06:53.133Z,7.02
2022-11-29T09:07:55.483Z,7.01
2022-11-29T09:08:58.171Z,7.07
2022-11-29T09:10:05.019Z,7.04
2022-11-29T09:11:09.338Z,7.10
2022-11-29T09:12:11.927Z,7.09
2022-11-29T09:13:14.885Z,7.12
2022-11-29T09:14:17.783Z,7.10
2022-11-29T09:15:20.325Z,7.09
2022-11-29T09:16:25.568Z,7.16
2022-11-29T09:17:28.183Z,7.13
2022-11-29T09:18:30.663Z,7.11
2022-11-29T09:19:33.305Z,7.18
2022-11-29T09:20:35.697Z,7.09
2022-11-29T09:21:38.079Z,7.03
2022-11-29T09:22:40.645Z,7.08
2022-11-29T09:23:44.054Z,7.09
2022-11-29T09:24:47.401Z,7.07
2022-11-29T09:25:49.957Z,7.12
2022-11-29T09:26:52.100Z,7.11
2022-11-29T09:27:57.263Z,7.11
2022-11-29T09:29:03.726Z,7.09
2022-11-29T09:30:06.615Z,7.11
2022-11-29T09:31:12.363Z,7.12
2022-11-29T09:32:14.539Z,7.16
2022-11-29T09:33:17.133Z,7.17
2022-11-29T09:34:19.359Z,7.20
2022-11-29T09:35:21.631Z,7.20
2022-11-29T09:36:28.397Z,7.23
2022-11-29T09:37:31.533Z,7.21
2022-11-29T09:38:34.851Z,7.20
2022-11-29T09:39:37.019Z,7.19
2022-11-29T09:40:46.885Z,7.18
2022-11-29T09:42:27.221Z,7.23
2022-11-29T09:43:44.232Z,7.21
2022-11-29T09:44:55.373Z,7.16
2022-11-29T09:46:06.932Z,7.16
2022-11-29T09:47:15.050Z,7.17
2022-11-29T09:48:20.251Z,7.20
2022-11-29T09:50:01.100Z,7.26
2022-11-29T09:51:25.537Z,7.22
2022-11-29T09:52:52.324Z,7.20
2022-11-29T09:54:11.384Z,7.19
2022-11-29T09:55:16.257Z,7.14
2022-11-29T09:56:38.767Z,7.24
2022-11-29T09:57:43.951Z,7.25
2022-11-29T09:58:52.890Z,7.20
2022-11-29T10:00:01.790Z,7.24
2022-11-29T10:01:09.471Z,7.26
2022-11-29T10:02:21.972Z,7.31
2022-11-29T10:03:40.022Z,7.27
2022-11-29T10:04:47.991Z,7.31
2022-11-29T10:05:57.419Z,7.28
2022-11-29T10:07:38.240Z,7.33
2022-11-29T10:08:46.093Z,7.35
2022-11-29T10:09:55.319Z,7.29
2022-11-29T10:11:12.171Z,7.28
2022-11-29T10:12:31.786Z,7.28
2022-11-29T10:13:35.903Z,7.29
2022-11-29T10:14:57.718Z,7.35
2022-11-29T10:16:09.992Z,7.43
2022-11-29T10:17:18.604Z,7.40
2022-11-29T10:18:38.496Z,7.39
2022-11-29T10:19:50.740Z,7.42
2022-11-29T10:20:58.464Z,7.45
2022-11-29T10:22:24.922Z,7.45
2022-11-29T10:23:41.825Z,7.50
2022-11-29T10:24:49.752Z,7.48
2022-11-29T10:25:54.225Z,7.39
2022-11-29T10:26:56.591Z,7.39
2022-11-29T10:27:59.086Z,7.38
2022-11-29T10:29:01.379Z,7.37
2022-11-29T10:30:06.451Z,7.36
2022-11-29T10:31:19.300Z,7.33
2022-11-29T10:32:25.388Z,7.31
2022-11-29T10:33:32.700Z,7.39
2022-11-29T10:34:35.177Z,7.37
2022-11-29T10:35:37.614Z,7.38
2022-11-29T10:36:44.628Z,7.34
2022-11-29T10:38:07.615Z,7.32
2022-11-29T10:39:37.214Z,7.38
2022-11-29T10:40:42.019Z,7.37
2022-11-29T10:41:44.309Z,7.40
2022-11-29T10:42:49.674Z,7.41
2022-11-29T10:43:54.407Z,7.39
2022-11-29T10:44:58.224Z,7.39
2022-11-29T10:46:02.417Z,7.41
2022-11-29T10:47:10.516Z,7.45
2022-11-29T10:48:17.255Z,7.45
2022-11-29T10:49:23.622Z,7.45
2022-11-29T10:50:27.964Z,7.47
2022-11-29T10:51:31.482Z,7.47
2022-11-29T10:52:33.919Z,7.39
2022-11-29T10:53:37.473Z,7.43
2022-11-29T10:54:42.564Z,7.46
2022-11-29T10:55:59.115Z,7.45
2022-11-29T10:57:02.282Z,7.39
2022-11-29T10:58:28.402Z,7.46
2022-11-29T10:59:33.001Z,7.49
2022-11-29T11:00:52.746Z,7.49
2022-11-29T11:01:55.820Z,7.48
2022-11-29T11:03:16.919Z,7.58
2022-11-29T11:04:26.481Z,7.51
2022-11-29T11:05:29.279Z,7.49
2022-11-29T11:06:51.472Z,7.48
2022-11-29T11:07:58.666Z,7.52
2022-11-29T11:09:31.649Z,7.45
2022-11-29T11:10:33.833Z,7.40
2022-11-29T11:11:36.023Z,7.47
2022-11-29T11:12:38.203Z,7.41
2022-11-29T11:13:41.883Z,7.43
2022-11-29T11:14:45.401Z,7.47
2022-11-29T11:15:47.994Z,7.45
2022-11-29T11:16:51.161Z,7.50
2022-11-29T11:18:04.747Z,7.58
2022-11-29T11:19:39.176Z,7.56
2022-11-29T11:20:42.426Z,7.51
2022-11-29T11:21:44.600Z,7.47
2022-11-29T11:23:02.405Z,7.51
2022-11-29T11:24:04.651Z,7.50
2022-11-29T11:25:31.564Z,7.59
2022-11-29T11:26:45.248Z,7.59
2022-11-29T11:27:47.787Z,7.60
2022-11-29T11:28:54.824Z,7.63
2022-11-29T11:29:57.738Z,7.62
2022-11-29T11:31:04.500Z,7.56
2022-11-29T11:32:19.997Z,7.66
2022-11-29T11:33:24.865Z,7.66
2022-11-29T11:34:31.705Z,7.70
2022-11-29T11:35:34.075Z,7.62
2022-11-29T11:36:36.293Z,7.63
2022-11-29T11:37:38.426Z,7.60
2022-11-29T11:38:53.984Z,7.65
2022-11-29T11:39:59.172Z,7.61
2022-11-29T11:41:03.435Z,7.64
2022-11-29T11:42:24.417Z,7.67
2022-11-29T11:43:26.696Z,7.68
2022-11-29T11:44:53.382Z,7.68
2022-11-29T11:45:55.784Z,7.68
2022-11-29T11:47:00.045Z,7.77
2022-11-29T11:48:13.668Z,7.85
2022-11-29T11:49:45.828Z,7.80
2022-11-29T11:50:57.458Z,7.78
2022-11-29T11:52:03.341Z,7.75
2022-11-29T11:53:18.310Z,7.71
2022-11-29T11:54:20.819Z,7.70
2022-11-29T11:55:43.386Z,7.72
2022-11-29T11:56:45.640Z,7.77
2022-11-29T11:58:10.314Z,7.69
2022-11-29T11:59:21.271Z,7.73
2022-11-29T12:02:25.340Z,7.72
2022-11-29T12:03:43.876Z,7.80
2022-11-29T12:04:46.515Z,7.75
2022-11-29T12:05:51.415Z,7.72
2022-11-29T12:06:57.237Z,7.76
2022-11-29T12:08:10.010Z,7.71
2022-11-29T12:09:34.384Z,7.84
2022-11-29T12:10:40.453Z,7.81
2022-11-29T12:12:07.673Z,7.86
2022-11-29T12:13:21.134Z,7.86
2022-11-29T12:14:47.336Z,7.85
2022-11-29T12:15:50.950Z,7.84
2022-11-29T12:17:14.322Z,7.82
2022-11-29T12:18:30.813Z,7.87
2022-11-29T12:19:41.809Z,7.89
2022-11-29T12:21:13.098Z,7.89
2022-11-29T12:22:22.314Z,7.88
2022-11-29T12:23:46.505Z,7.87
2022-11-29T12:24:57.072Z,7.85
2022-11-29T12:26:06.583Z,7.84
2022-11-29T12:27:14.406Z,7.76
2022-11-29T12:28:20.850Z,7.73
2022-11-29T12:29:25.833Z,7.79
2022-11-29T12:30:28.135Z,7.82
2022-11-29T12:31:32.870Z,7.81
2022-11-29T12:32:52.199Z,7.89
2022-11-29T12:34:06.573Z,7.79
2022-11-29T12:35:50.262Z,7.80
2022-11-29T12:37:04.397Z,7.80
2022-11-29T12:38:09.273Z,7.78
2022-11-29T12:39:30.064Z,7.82
2022-11-29T12:40:57.324Z,7.86
2022-11-29T12:42:14.241Z,7.82
2022-11-29T12:43:31.555Z,7.87
2022-11-29T12:44:48.585Z,7.87
2022-11-29T12:46:15.127Z,7.90
2022-11-29T12:48:57.864Z,7.87
2022-11-29T12:50:12.772Z,7.88
2022-11-29T12:51:52.329Z,7.90
2022-11-29T12:53:11.261Z,7.94
2022-11-29T12:54:40.977Z,7.89
2022-11-29T12:56:18.772Z,7.89
2022-11-29T12:57:24.052Z,7.84
2022-11-29T12:58:51.367Z,7.90
2022-11-29T13:00:11.315Z,7.89
2022-11-29T13:01:51.146Z,7.90
2022-11-29T13:03:08.942Z,7.87
2022-11-29T13:05:24.943Z,7.89
2022-11-29T13:06:38.683Z,7.87
2022-11-29T13:08:08.237Z,7.95
2022-11-29T13:09:28.205Z,7.95
2022-11-29T13:10:46.013Z,7.95
2022-11-29T13:11:56.533Z,7.96
2022-11-29T13:13:04.841Z,7.93
2022-11-29T13:14:42.629Z,7.96
2022-11-29T13:16:08.215Z,8.02
2022-11-29T13:17:29.286Z,7.97
2022-11-29T13:18:40.243Z,8.03
2022-11-29T13:19:53.361Z,7.92
2022-11-29T13:21:04.691Z,7.93
2022-11-29T13:22:19.873Z,7.96
2022-11-29T13:23:45.603Z,7.98
2022-11-29T13:25:01.679Z,7.98
2022-11-29T13:26:09.856Z,8.00
2022-11-29T13:27:19.018Z,7.96
2022-11-29T13:28:27.735Z,7.97
2022-11-29T13:29:30.679Z,7.91
2022-11-29T13:30:35.079Z,7.93
2022-11-29T13:31:38.931Z,7.93
2022-11-29T13:32:53.060Z,7.94
2022-11-29T13:34:08.266Z,7.97
2022-11-29T13:35:28.981Z,7.96
2022-11-29T13:37:16.126Z,7.96
2022-11-29T13:38:21.238Z,8.00
2022-11-29T13:39:55.839Z,7.97
2022-11-29T13:41:02.327Z,7.97
2022-11-29T13:42:13.382Z,7.93
2022-11-29T13:43:41.198Z,7.96
2022-11-29T13:44:51.252Z,7.95
2022-11-29T13:46:14.167Z,7.97
2022-11-29T13:47:18.321Z,7.94
2022-11-29T13:48:48.634Z,7.94
2022-11-29T13:49:57.206Z,7.97
2022-11-29T13:51:33.156Z,7.98
2022-11-29T13:52:43.137Z,7.98
2022-11-29T13:53:48.841Z,7.98
2022-11-29T13:55:15.453Z,7.98
2022-11-29T13:56:36.013Z,7.94
2022-11-29T13:58:14.341Z,7.95
2022-11-29T13:59:19.340Z,7.91
2022-11-29T14:00:43.905Z,7.87
2022-11-29T14:01:51.640Z,7.90
2022-11-29T14:02:55.583Z,7.83
2022-11-29T14:04:07.361Z,7.84
2022-11-29T14:05:25.237Z,7.98
2022-11-29T14:06:36.232Z,7.97
2022-11-29T14:08:18.145Z,8.04
2022-11-29T14:09:29.036Z,7.99
2022-11-29T14:10:32.427Z,7.90
2022-11-29T14:11:50.017Z,7.86
2022-11-29T14:12:56.847Z,7.89
2022-11-29T14:14:24.394Z,7.85
2022-11-29T14:15:29.351Z,7.87
2022-11-29T14:16:34.825Z,7.83
2022-11-29T14:17:43.101Z,7.83
2022-11-29T14:18:47.356Z,7.85
2022-11-29T14:19:49.490Z,7.88
2022-11-29T14:20:56.301Z,7.89
2022-11-29T14:22:07.548Z,7.82
2022-11-29T14:23:12.458Z,7.91
2022-11-29T14:24:35.298Z,8.04
2022-11-29T14:25:56.283Z,7.94
2022-11-29T14:27:18.245Z,8.00
2022-11-29T14:28:23.046Z,8.00
2022-11-29T14:29:53.937Z,7.97
2022-11-29T14:31:09.044Z,7.93
2022-11-29T14:32:21.245Z,7.95
2022-11-29T14:33:50.981Z,8.06
2022-11-29T14:35:08.063Z,8.10
2022-11-29T14:36:18.743Z,8.07
2022-11-29T14:37:33.879Z,8.09
2022-11-29T14:38:47.512Z,8.08
2022-11-29T14:39:54.952Z,8.05
2022-11-29T14:41:24.948Z,7.94
2022-11-29T14:42:28.360Z,7.90
2022-11-29T14:43:36.643Z,7.88
2022-11-29T14:44:45.638Z,7.82
2022-11-29T14:46:06.124Z,7.79
2022-11-29T14:47:20.366Z,7.80
2022-11-29T14:48:31.732Z,7.79
2022-11-29T14:49:43.456Z,7.80
2022-11-29T14:50:45.623Z,7.78
2022-11-29T14:52:15.279Z,7.82
2022-11-29T14:53:34.173Z,7.79
2022-11-29T14:54:54.352Z,7.76
2022-11-29T14:56:35.191Z,7.81
2022-11-29T14:58:03.742Z,7.80
2022-11-29T14:59:43.285Z,7.77
2022-11-29T15:00:48.183Z,7.80
2022-11-29T15:01:50.493Z,7.77
2022-11-29T15:03:11.036Z,7.79
2022-11-29T15:04:13.526Z,7.75
2022-11-29T15:05:18.579Z,7.77
2022-11-29T15:06:26.775Z,7.73
2022-11-29T15:07:31.891Z,7.70
2022-11-29T15:08:41.848Z,7.74
2022-11-29T15:09:49.594Z,7.72
2022-11-29T15:10:57.006Z,7.70
2022-11-29T15:12:03.184Z,7.65
2022-11-29T15:13:06.920Z,7.73
2022-11-29T15:14:43.385Z,7.73
2022-11-29T15:16:05.785Z,7.68
2022-11-29T15:17:25.358Z,7.67
2022-11-29T15:18:46.817Z,7.58
2022-11-29T15:20:16.465Z,7.58
2022-11-29T15:21:35.859Z,7.60
2022-11-29T15:22:54.694Z,7.64
2022-11-29T15:24:06.799Z,7.55
2022-11-29T15:25:18.034Z,7.58
2022-11-29T15:26:21.154Z,7.58
2022-11-29T15:27:24.223Z,7.53
2022-11-29T15:28:28.773Z,7.53
2022-11-29T15:29:31.744Z,7.57
2022-11-29T15:30:39.280Z,7.65
2022-11-29T15:31:43.294Z,7.60
2022-11-29T15:32:46.362Z,7.65
2022-11-29T15:33:49.752Z,7.64
2022-11-29T15:34:54.561Z,7.60
2022-11-29T15:36:05.395Z,7.67
2022-11-29T15:37:21.001Z,7.67
2022-11-29T15:38:24.337Z,7.68
2022-11-29T15:39:32.818Z,7.67
2022-11-29T15:40:37.043Z,7.67
2022-11-29T15:41:41.214Z,7.66
2022-11-29T15:42:53.279Z,7.65
2022-11-29T15:44:02.212Z,7.63
2022-11-29T15:45:22.684Z,7.70
2022-11-29T15:46:30.005Z,7.65
2022-11-29T15:47:32.124Z,7.66
2022-11-29T15:48:34.389Z,7.69
2022-11-29T15:49:36.510Z,7.68
2022-11-29T15:50:41.532Z,7.64
2022-11-29T15:51:47.741Z,7.73
2022-11-29T15:52:49.968Z,7.68
2022-11-29T15:54:13.153Z,7.70
2022-11-29T15:55:16.018Z,7.64
2022-11-29T15:56:49.007Z,7.72
2022-11-29T15:57:53.706Z,7.68
2022-11-29T15:59:00.773Z,7.68
2022-11-29T16:00:07.052Z,7.66
2022-11-29T16:01:20.962Z,7.69
2022-11-29T16:02:32.562Z,7.67
2022-11-29T16:03:37.994Z,7.61
2022-11-29T16:04:46.484Z,7.57
2022-11-29T16:05:56.126Z,7.63
2022-11-29T16:07:00.802Z,7.62
2022-11-29T16:08:15.019Z,7.68
2022-11-29T16:09:29.276Z,7.66
2022-11-29T16:10:47.285Z,7.66